createdAt,value
2022-08-02T15:37:50.935Z,30.00
2022-08-02T15:43:21.612Z,29.90
2022-08-02T15:48:49.678Z,29.60
2022-08-02T15:54:18.147Z,29.20
2022-08-02T15:59:46.918Z,28.90
2022-08-02T16:05:17.944Z,28.90
2022-08-02T16:10:46.158Z,29.00
2022-08-02T16:16:14.035Z,28.80
2022-08-02T16:21:42.012Z,28.80
2022-08-02T16:27:09.921Z,28.80
2022-08-02T16:32:38.058Z,28.70
2022-08-02T16:38:06.078Z,28.70
2022-08-02T16:43:37.448Z,28.80
2022-08-02T16:49:05.414Z,28.70
2022-08-02T16:54:53.215Z,28.60
2022-08-02T17:00:21.480Z,28.60
2022-08-02T17:05:56.216Z,28.60
2022-08-02T17:11:25.708Z,28.60
2022-08-02T17:16:54.275Z,28.40
2022-08-02T17:22:24.949Z,28.20
2022-08-02T17:27:55.650Z,28.00
2022-08-02T17:33:37.328Z,27.80
2022-08-02T17:39:06.918Z,27.60
2022-08-02T17:44:38.670Z,27.40
2022-08-02T17:50:08.257Z,27.30
2022-08-02T18:01:33.252Z,27.00
2022-08-02T18:07:09.830Z,26.80
2022-08-02T18:12:47.729Z,26.70
2022-08-02T18:18:29.970Z,26.60
2022-08-02T18:24:01.640Z,26.50
2022-08-02T18:35:23.861Z,26.20
2022-08-02T18:40:56.365Z,26.00
2022-08-02T18:46:35.510Z,25.90
2022-08-02T18:52:08.972Z,25.70
2022-08-02T18:57:59.753Z,25.50
2022-08-02T19:03:28.226Z,25.40
2022-08-02T19:09:11.177Z,25.20
2022-08-02T19:14:41.291Z,25.00
2022-08-02T19:20:10.836Z,24.80
2022-08-02T19:25:54.385Z,24.70
2022-08-02T19:31:22.693Z,24.50
2022-08-02T19:36:50.640Z,24.30
2022-08-02T19:42:20.474Z,24.20
2022-08-02T19:47:54.367Z,24.10
2022-08-02T19:53:28.859Z,24.00
2022-08-02T19:59:00.060Z,23.90
2022-08-02T20:04:28.443Z,23.70
2022-08-02T20:09:56.501Z,23.60
2022-08-02T20:15:51.699Z,23.50
2022-08-02T20:21:28.442Z,23.30
2022-08-02T20:27:02.414Z,23.20
2022-08-02T20:32:30.307Z,23.10
2022-08-02T20:38:02.245Z,22.90
2022-08-02T20:43:31.713Z,22.80
2022-08-02T20:49:06.691Z,22.60
2022-08-02T20:54:34.703Z,22.50
2022-08-02T21:00:06.857Z,22.40
2022-08-02T21:05:54.318Z,22.30
2022-08-02T21:11:25.640Z,22.20
2022-08-02T21:17:02.046Z,22.00
2022-08-02T21:22:32.176Z,21.90
2022-08-02T21:28:00.374Z,21.70
2022-08-02T21:33:57.029Z,21.60
2022-08-02T21:39:18.678Z,21.40
2022-08-02T21:44:48.380Z,21.30
2022-08-02T21:50:18.706Z,21.20
2022-08-02T21:56:00.296Z,21.10
2022-08-02T22:01:31.084Z,21.00
2022-08-02T22:06:59.143Z,20.90
2022-08-02T22:12:27.322Z,20.70
2022-08-02T22:17:59.959Z,20.60
2022-08-02T22:23:38.654Z,20.50
2022-08-02T22:29:17.920Z,20.40
2022-08-02T22:34:52.213Z,20.30
2022-08-02T22:40:20.350Z,20.20
2022-08-02T22:45:48.385Z,20.10
2022-08-02T22:51:17.972Z,20.00
2022-08-02T22:56:45.834Z,19.90
2022-08-02T22:58:49.253Z,27.10
2022-08-02T22:58:58.722Z,26.40
2022-08-02T23:02:14.650Z,19.80
2022-08-02T23:07:42.802Z,19.80
2022-08-02T23:13:11.027Z,19.70
2022-08-02T23:18:58.093Z,19.60
2022-08-02T23:24:28.506Z,19.50
2022-08-02T23:29:56.669Z,19.40
2022-08-02T23:35:25.165Z,19.30
2022-08-02T23:40:53.019Z,19.20
2022-08-02T23:46:20.935Z,19.20
2022-08-02T23:51:50.703Z,19.10
2022-08-02T23:57:20.566Z,19.00
